Time;durP1;ratioP1;P1;durP2;ratioP2;P2;SDS_P1;SDS_P2;PMS_P1;PMS_P2;Temp;Humidity;BMP_temperature;BMP_pressure;BME280_temperature;BME280_humidity;BME280_pressure;Samples;Min_cycle;Max_cycle;Signal;HPM_P1;HPM_P2
2023/12/31 00:00:08;;;;;;;1.00;0.90;;;17.20;60.60;;;;;;6098721;23;20187;-83
2023/12/31 00:02:34;;;;;;;0.73;0.68;;;17.20;61.10;;;;;;6076906;23;20172;-83
2023/12/31 00:05:01;;;;;;;1.13;0.70;;;17.10;60.90;;;;;;6126107;23;20143;-84
2023/12/31 00:07:27;;;;;;;1.08;0.95;;;17.10;61.00;;;;;;6076088;23;20242;-84
2023/12/31 00:09:54;;;;;;;0.80;0.68;;;17.10;60.80;;;;;;6100601;23;20588;-82
2023/12/31 00:12:20;;;;;;;1.48;0.90;;;17.10;60.70;;;;;;6100761;23;20133;-83
2023/12/31 00:17:25;;;;;;;0.98;0.73;;;17.10;60.60;;;;;;6184955;23;20207;-84
2023/12/31 00:19:51;;;;;;;0.98;0.70;;;17.10;61.00;;;;;;6160529;23;20677;-84
2023/12/31 00:22:17;;;;;;;1.42;0.80;;;17.20;60.70;;;;;;6187070;23;20447;-84
2023/12/31 00:24:43;;;;;;;1.00;0.60;;;17.10;60.70;;;;;;6161282;23;20139;-85
2023/12/31 00:27:12;;;;;;;1.52;0.80;;;17.20;60.80;;;;;;6185710;23;20138;-85
2023/12/31 00:29:37;;;;;;;1.00;0.80;;;17.10;61.60;;;;;;6110600;23;20276;-85
2023/12/31 00:32:03;;;;;;;1.15;0.82;;;17.10;60.80;;;;;;6135091;23;20570;-83
2023/12/31 00:34:29;;;;;;;0.73;0.70;;;17.10;61.00;;;;;;6160057;23;20178;-85
2023/12/31 00:36:56;;;;;;;1.00;0.80;;;17.10;60.70;;;;;;6184737;23;20131;-83
2023/12/31 00:39:23;;;;;;;1.20;0.45;;;17.10;61.00;;;;;;6109889;23;20174;-83
2023/12/31 00:41:51;;;;;;;0.60;0.60;;;17.10;60.80;;;;;;6108811;23;20162;-83
2023/12/31 00:44:18;;;;;;;0.80;0.80;;;17.10;60.80;;;;;;6133874;23;20598;-85
2023/12/31 00:46:45;;;;;;;0.90;0.80;;;17.10;61.00;;;;;;6134763;23;20146;-84
2023/12/31 00:49:11;;;;;;;1.40;0.90;;;17.10;61.90;;;;;;6110691;23;20537;-84
2023/12/31 00:51:38;;;;;;;0.60;0.60;;;17.10;60.90;;;;;;6186767;23;20131;-83
2023/12/31 00:54:04;;;;;;;1.60;0.80;;;17.10;61.00;;;;;;6109816;23;20159;-84
2023/12/31 00:56:30;;;;;;;0.77;0.77;;;17.00;60.70;;;;;;6132536;23;20135;-84
2023/12/31 00:58:59;;;;;;;0.90;0.77;;;17.00;60.90;;;;;;6160373;23;20242;-83
2023/12/31 01:01:24;;;;;;;1.10;0.80;;;17.10;60.90;;;;;;6109322;23;20590;-85
2023/12/31 01:03:51;;;;;;;1.00;0.80;;;17.00;61.10;;;;;;6157233;23;20151;-84
2023/12/31 01:06:16;;;;;;;1.13;0.75;;;17.00;61.20;;;;;;6158645;23;20574;-84
2023/12/31 01:08:42;;;;;;;1.08;0.90;;;17.00;60.90;;;;;;6133923;23;20205;-85
2023/12/31 01:11:08;;;;;;;0.90;0.80;;;17.00;61.00;;;;;;6185618;23;20566;-84
2023/12/31 01:13:35;;;;;;;0.93;0.75;;;17.00;61.20;;;;;;6159106;23;20551;-83
2023/12/31 01:16:01;;;;;;;0.80;0.73;;;17.00;61.00;;;;;;6108564;23;20201;-85
2023/12/31 01:18:28;;;;;;;0.80;0.77;;;17.00;60.80;;;;;;6110305;23;20146;-84
2023/12/31 01:20:55;;;;;;;0.95;0.82;;;17.00;61.00;;;;;;6109911;23;20242;-83
2023/12/31 01:23:24;;;;;;;1.10;0.80;;;17.00;61.00;;;;;;6110422;23;20202;-83
2023/12/31 01:25:50;;;;;;;0.80;0.80;;;17.00;60.80;;;;;;6134648;23;20154;-84
2023/12/31 01:28:15;;;;;;;0.60;0.60;;;17.10;60.90;;;;;;6158295;23;20188;-83
2023/12/31 01:30:42;;;;;;;0.85;0.82;;;17.00;60.90;;;;;;6185087;23;20139;-84
2023/12/31 01:33:09;;;;;;;0.65;0.65;;;17.00;61.10;;;;;;6109539;23;20165;-85
2023/12/31 01:35:35;;;;;;;0.75;0.70;;;17.00;61.00;;;;;;6108294;23;20575;-84
2023/12/31 01:38:02;;;;;;;0.73;0.60;;;16.90;60.90;;;;;;6160198;23;20243;-84
2023/12/31 01:40:29;;;;;;;0.57;0.55;;;17.00;60.90;;;;;;6109462;23;20522;-83
2023/12/31 01:43:03;;;;;;;0.77;0.77;;;17.00;61.00;;;;;;6083920;23;20245;-84
2023/12/31 01:45:28;;;;;;;1.08;0.80;;;17.00;61.80;;;;;;6085446;23;20201;-83
2023/12/31 01:47:54;;;;;;;1.05;0.80;;;17.00;60.90;;;;;;6184759;23;20505;-85
2023/12/31 01:50:23;;;;;;;0.82;0.73;;;17.00;61.00;;;;;;6075741;23;20662;-84
2023/12/31 01:52:51;;;;;;;1.25;0.93;;;17.00;61.00;;;;;;6051062;23;20534;-84
2023/12/31 01:55:19;;;;;;;0.82;0.77;;;17.00;61.00;;;;;;6074644;23;20159;-84
2023/12/31 01:57:47;;;;;;;0.70;0.70;;;17.00;60.90;;;;;;6075862;23;20156;-84
2023/12/31 02:00:13;;;;;;;1.13;0.88;;;17.00;60.80;;;;;;6051243;23;20648;-84
2023/12/31 02:02:40;;;;;;;0.90;0.65;;;17.00;60.80;;;;;;6164387;23;20228;-83
2023/12/31 02:05:06;;;;;;;1.05;0.80;;;17.00;61.10;;;;;;6108967;23;20177;-85
2023/12/31 02:07:35;;;;;;;0.90;0.80;;;17.00;60.90;;;;;;6134389;23;20563;-85
2023/12/31 02:10:00;;;;;;;0.65;0.65;;;17.00;61.00;;;;;;6125072;23;20214;-83
2023/12/31 02:12:26;;;;;;;0.80;0.70;;;17.00;61.00;;;;;;6184181;23;20250;-83
2023/12/31 02:14:52;;;;;;;1.33;0.77;;;16.90;61.00;;;;;;6158598;23;20210;-83
2023/12/31 02:17:37;;;;;;;0.70;0.65;;;16.90;61.10;;;;;;6133914;23;20186;-82
2023/12/31 02:20:06;;;;;;;1.73;0.80;;;16.90;60.80;;;;;;6094187;23;20196;-86
2023/12/31 02:22:32;;;;;;;0.70;0.70;;;16.90;61.00;;;;;;6070542;23;20628;-85
2023/12/31 02:24:58;;;;;;;1.40;1.00;;;17.00;60.90;;;;;;6070382;23;20137;-84
2023/12/31 02:27:27;;;;;;;1.23;0.90;;;17.00;60.70;;;;;;6093492;23;20149;-85
2023/12/31 02:30:00;;;;;;;0.75;0.65;;;17.00;60.80;;;;;;6022056;23;20614;-83
2023/12/31 02:32:29;;;;;;;0.93;0.60;;;17.00;60.90;;;;;;6046642;23;20239;-84
2023/12/31 02:34:55;;;;;;;0.77;0.77;;;17.00;60.70;;;;;;6046025;23;20280;-85
2023/12/31 02:37:22;;;;;;;0.73;0.60;;;17.00;60.80;;;;;;6070450;23;20133;-85
2023/12/31 02:39:50;;;;;;;0.90;0.68;;;16.90;60.90;;;;;;6069096;23;20192;-84
2023/12/31 02:42:18;;;;;;;0.77;0.77;;;16.90;60.70;;;;;;6093726;23;20239;-84
2023/12/31 02:44:43;;;;;;;0.90;0.73;;;16.90;61.70;;;;;;6050780;23;20167;-86
2023/12/31 02:47:11;;;;;;;0.82;0.80;;;16.90;60.80;;;;;;6183703;23;20221;-85
2023/12/31 02:52:10;;;;;;;0.98;0.70;;;16.90;60.70;;;;;;6185145;23;20182;-83
2023/12/31 02:54:36;;;;;;;0.70;0.52;;;16.90;60.90;;;;;;6108836;23;20166;-84
2023/12/31 02:57:02;;;;;;;1.02;0.68;;;17.00;61.10;;;;;;6132865;23;20450;-82
2023/12/31 02:59:30;;;;;;;0.85;0.80;;;16.90;60.90;;;;;;6159167;23;20162;-84
2023/12/31 03:01:55;;;;;;;0.90;0.80;;;16.90;60.90;;;;;;6107903;23;20222;-83
2023/12/31 03:04:21;;;;;;;0.73;0.73;;;16.90;60.90;;;;;;6109737;23;20150;-84
2023/12/31 03:06:51;;;;;;;1.10;1.00;;;16.90;60.80;;;;;;6184774;23;20131;-84
2023/12/31 03:09:18;;;;;;;0.77;0.68;;;16.90;60.80;;;;;;6157810;23;20226;-83
2023/12/31 03:11:44;;;;;;;0.82;0.80;;;16.90;60.80;;;;;;6157758;23;20198;-83
2023/12/31 03:14:10;;;;;;;0.63;0.60;;;16.90;61.00;;;;;;6157817;23;20170;-84
2023/12/31 03:16:36;;;;;;;0.80;0.80;;;16.90;60.90;;;;;;6133304;23;20214;-83
2023/12/31 03:19:02;;;;;;;0.57;0.57;;;16.90;60.90;;;;;;6109300;23;20210;-84
2023/12/31 03:21:31;;;;;;;0.90;0.80;;;16.90;61.00;;;;;;6133225;23;20506;-84
2023/12/31 03:23:58;;;;;;;1.40;1.02;;;16.80;60.60;;;;;;6068259;23;20684;-84
2023/12/31 03:26:25;;;;;;;1.40;0.93;;;16.80;60.50;;;;;;6070965;23;20612;-84
2023/12/31 03:28:51;;;;;;;0.60;0.60;;;16.90;60.90;;;;;;6047235;23;20235;-82
2023/12/31 03:31:17;;;;;;;0.80;0.70;;;16.90;60.90;;;;;;6095882;23;20164;-84
2023/12/31 03:33:46;;;;;;;1.50;0.90;;;16.90;61.10;;;;;;6071858;23;20589;-82
2023/12/31 03:38:44;;;;;;;0.90;0.90;;;16.90;60.70;;;;;;6217914;23;20200;-83
2023/12/31 03:41:09;;;;;;;1.38;0.85;;;16.80;60.70;;;;;;6139943;23;20158;-83
2023/12/31 03:43:35;;;;;;;1.10;0.90;;;16.90;60.70;;;;;;6166645;23;20161;-83
2023/12/31 03:46:01;;;;;;;1.33;0.80;;;16.90;61.70;;;;;;6191649;23;20576;-83
2023/12/31 03:48:39;;;;;;;0.63;0.60;;;16.80;61.00;;;;;;6218333;23;20138;-82
2023/12/31 03:51:13;;;;;;;0.80;0.80;;;16.90;60.70;;;;;;6142473;23;20203;-83
2023/12/31 03:53:40;;;;;;;0.68;0.63;;;16.90;61.00;;;;;;6115233;23;20156;-83
2023/12/31 03:56:08;;;;;;;0.60;0.60;;;16.80;60.80;;;;;;6141144;23;20161;-85
2023/12/31 03:58:37;;;;;;;0.88;0.82;;;16.80;61.00;;;;;;6142164;23;20238;-83
2023/12/31 04:01:12;;;;;;;0.75;0.73;;;16.80;60.80;;;;;;6116801;23;20653;-83
2023/12/31 04:03:39;;;;;;;0.70;0.60;;;16.90;60.80;;;;;;6216291;23;20248;-83
2023/12/31 04:06:06;;;;;;;0.70;0.70;;;16.80;60.80;;;;;;6189586;23;20181;-84
2023/12/31 04:08:34;;;;;;;0.65;0.65;;;16.80;60.80;;;;;;6166072;23;20146;-83
2023/12/31 04:11:04;;;;;;;1.50;1.00;;;16.80;60.70;;;;;;6115208;23;20154;-84
2023/12/31 04:13:30;;;;;;;0.75;0.73;;;16.80;60.80;;;;;;6053992;23;20690;-84
2023/12/31 04:15:55;;;;;;;0.75;0.70;;;16.80;60.90;;;;;;6101467;23;20148;-83
2023/12/31 04:18:22;;;;;;;0.85;0.70;;;16.80;60.80;;;;;;6100929;23;20147;-84
2023/12/31 04:20:48;;;;;;;0.95;0.80;;;16.80;60.80;;;;;;6077394;23;20172;-84
2023/12/31 04:23:14;;;;;;;0.80;0.60;;;16.80;60.90;;;;;;6099720;23;20599;-82
2023/12/31 04:25:40;;;;;;;1.10;0.90;;;16.80;60.90;;;;;;6076661;23;20144;-82
2023/12/31 04:28:06;;;;;;;0.80;0.70;;;16.80;61.20;;;;;;6100213;23;20175;-84
2023/12/31 04:30:31;;;;;;;0.93;0.70;;;16.80;60.80;;;;;;6077130;23;20144;-84
2023/12/31 04:32:57;;;;;;;1.02;0.75;;;16.80;60.90;;;;;;6123959;23;20159;-84
2023/12/31 04:35:23;;;;;;;1.48;0.80;;;16.80;60.90;;;;;;6101330;23;20226;-85
2023/12/31 04:37:49;;;;;;;1.23;0.70;;;16.80;60.80;;;;;;6122161;23;20191;-83
2023/12/31 04:40:15;;;;;;;0.60;0.57;;;16.80;60.60;;;;;;6124469;23;20773;-84
2023/12/31 04:42:40;;;;;;;0.95;0.85;;;16.90;60.60;;;;;;6099853;23;20276;-83
2023/12/31 04:45:09;;;;;;;0.90;0.70;;;16.80;60.90;;;;;;6150788;23;20184;-84
2023/12/31 04:47:35;;;;;;;1.02;0.90;;;16.80;60.80;;;;;;6188583;23;20130;-85
2023/12/31 04:50:01;;;;;;;1.13;0.80;;;16.80;60.80;;;;;;6164616;23;20581;-84
2023/12/31 04:52:28;;;;;;;0.60;0.60;;;16.80;60.60;;;;;;6215452;23;20134;-83
2023/12/31 04:54:56;;;;;;;1.20;0.85;;;16.80;60.90;;;;;;6139622;23;20154;-84
2023/12/31 04:59:47;;;;;;;1.10;0.80;;;16.80;60.80;;;;;;6182941;23;20634;-83
2023/12/31 05:02:13;;;;;;;0.80;0.80;;;16.80;60.70;;;;;;6184893;23;20130;-86
2023/12/31 05:04:41;;;;;;;0.90;0.73;;;16.80;60.90;;;;;;6135796;23;20151;-83
2023/12/31 05:07:09;;;;;;;0.98;0.80;;;16.80;60.80;;;;;;6184784;23;20150;-84
2023/12/31 05:09:35;;;;;;;0.80;0.70;;;16.90;60.70;;;;;;6186620;23;20199;-84
2023/12/31 05:12:01;;;;;;;0.98;0.80;;;16.80;60.90;;;;;;6186704;23;20127;-83
2023/12/31 05:14:27;;;;;;;0.77;0.70;;;16.80;60.70;;;;;;6189076;23;20219;-83
2023/12/31 05:16:53;;;;;;;0.80;0.80;;;16.80;60.80;;;;;;6187086;23;20131;-83
2023/12/31 05:19:19;;;;;;;0.93;0.60;;;16.70;60.90;;;;;;6187336;23;20167;-82
2023/12/31 05:21:45;;;;;;;0.95;0.85;;;16.80;60.70;;;;;;6160789;23;20174;-84
2023/12/31 05:24:12;;;;;;;0.77;0.70;;;16.70;61.00;;;;;;6160256;23;20169;-84
2023/12/31 05:26:38;;;;;;;1.58;0.90;;;16.80;60.90;;;;;;6160571;23;20151;-85
2023/12/31 05:29:04;;;;;;;1.10;1.00;;;16.80;61.00;;;;;;6160162;23;20197;-84
2023/12/31 05:31:30;;;;;;;0.93;0.75;;;16.80;60.90;;;;;;6185689;23;20146;-84
2023/12/31 05:33:56;;;;;;;1.30;1.00;;;16.70;60.90;;;;;;6160525;23;20238;-82
2023/12/31 05:36:21;;;;;;;1.23;0.85;;;16.70;60.90;;;;;;6184284;23;20167;-85
2023/12/31 05:38:48;;;;;;;0.77;0.73;;;16.80;60.80;;;;;;6134504;23;20154;-83
2023/12/31 05:41:13;;;;;;;1.08;0.90;;;16.80;60.90;;;;;;6183947;23;20146;-84
2023/12/31 05:43:41;;;;;;;0.98;0.80;;;16.80;60.70;;;;;;6184265;23;20210;-84
2023/12/31 05:46:06;;;;;;;1.25;0.85;;;16.80;60.70;;;;;;6157047;23;20182;-85
2023/12/31 05:48:32;;;;;;;1.00;0.90;;;16.80;60.50;;;;;;6184447;23;20131;-84
2023/12/31 05:50:58;;;;;;;0.52;0.52;;;16.80;60.60;;;;;;6183480;23;20158;-84
2023/12/31 05:53:24;;;;;;;1.02;0.88;;;16.80;60.60;;;;;;6182862;23;20567;-84
2023/12/31 05:55:50;;;;;;;1.02;0.85;;;16.80;60.50;;;;;;6183013;23;20146;-82
2023/12/31 05:58:16;;;;;;;1.15;1.00;;;16.80;60.50;;;;;;6183261;23;20218;-83
2023/12/31 06:00:41;;;;;;;0.95;0.70;;;16.80;60.70;;;;;;6182439;23;20186;-83
2023/12/31 06:03:09;;;;;;;0.85;0.80;;;16.80;60.60;;;;;;6158964;23;20139;-84
2023/12/31 06:05:37;;;;;;;0.95;0.80;;;16.80;60.60;;;;;;6133693;23;20230;-85
2023/12/31 06:08:05;;;;;;;0.85;0.82;;;16.70;61.50;;;;;;6132897;23;20150;-84
2023/12/31 06:10:33;;;;;;;0.77;0.70;;;16.80;60.70;;;;;;6134420;23;20155;-82
2023/12/31 06:13:02;;;;;;;0.90;0.90;;;16.70;60.50;;;;;;6108157;23;20205;-83
2023/12/31 06:15:30;;;;;;;0.93;0.82;;;16.80;60.70;;;;;;6107574;23;20204;-84
2023/12/31 06:17:58;;;;;;;0.73;0.73;;;16.70;60.30;;;;;;6156074;23;20186;-83
2023/12/31 06:20:24;;;;;;;0.70;0.70;;;16.80;60.80;;;;;;6132546;23;20611;-83
2023/12/31 06:22:50;;;;;;;1.73;0.88;;;16.80;60.70;;;;;;6183674;23;20157;-84
2023/12/31 06:25:21;;;;;;;1.23;1.00;;;16.80;60.50;;;;;;6185383;23;20566;-83
2023/12/31 06:27:49;;;;;;;1.10;0.82;;;16.80;60.50;;;;;;6188220;23;20256;-84
2023/12/31 06:30:15;;;;;;;0.73;0.68;;;16.80;60.60;;;;;;6113896;23;20233;-85
2023/12/31 06:32:41;;;;;;;0.90;0.77;;;16.70;60.60;;;;;;6163048;23;20176;-82
2023/12/31 06:35:07;;;;;;;0.80;0.80;;;16.80;60.60;;;;;;6185578;23;20711;-82
2023/12/31 06:37:33;;;;;;;0.93;0.80;;;16.80;60.70;;;;;;6162702;23;20209;-84
2023/12/31 06:39:58;;;;;;;0.73;0.65;;;16.70;60.50;;;;;;6188468;23;20268;-84
2023/12/31 06:42:24;;;;;;;1.17;1.05;;;16.80;60.60;;;;;;6213964;23;20209;-83
2023/12/31 06:44:51;;;;;;;0.85;0.73;;;16.70;60.50;;;;;;6162934;23;20150;-85
2023/12/31 06:47:17;;;;;;;1.02;0.70;;;16.70;60.60;;;;;;6187662;23;20154;-84
2023/12/31 06:49:42;;;;;;;0.80;0.80;;;16.70;60.50;;;;;;6186792;23;20235;-84
2023/12/31 06:52:08;;;;;;;1.02;0.80;;;16.70;60.50;;;;;;6187587;23;20123;-84
2023/12/31 06:54:34;;;;;;;0.98;0.70;;;16.70;61.30;;;;;;6214486;23;20131;-85
2023/12/31 06:57:01;;;;;;;0.80;0.70;;;16.70;60.30;;;;;;6187336;23;20130;-85
2023/12/31 06:59:26;;;;;;;1.35;0.80;;;16.80;60.40;;;;;;6087711;23;20174;-84
2023/12/31 07:01:54;;;;;;;1.10;0.80;;;16.70;60.50;;;;;;6186790;23;20224;-82
2023/12/31 07:04:24;;;;;;;1.20;0.90;;;16.60;60.40;;;;;;6113512;23;20240;-83
2023/12/31 07:06:49;;;;;;;1.02;0.80;;;16.70;60.50;;;;;;6112956;23;20200;-83
2023/12/31 07:09:15;;;;;;;1.20;0.95;;;16.70;60.50;;;;;;6214524;23;20134;-85
2023/12/31 07:11:41;;;;;;;1.00;0.90;;;16.70;60.60;;;;;;6214400;23;20158;-83
2023/12/31 07:14:07;;;;;;;1.17;0.85;;;16.70;60.50;;;;;;6162963;23;20138;-83
2023/12/31 07:16:34;;;;;;;0.95;0.80;;;16.70;60.50;;;;;;6163642;23;20150;-83
2023/12/31 07:19:01;;;;;;;1.02;0.80;;;16.70;60.50;;;;;;6111800;23;20177;-83
2023/12/31 07:21:28;;;;;;;0.98;0.80;;;16.70;60.50;;;;;;6136617;23;20161;-83
2023/12/31 07:23:53;;;;;;;0.85;0.80;;;16.70;60.40;;;;;;6163210;23;20172;-84
2023/12/31 07:26:24;;;;;;;1.17;0.93;;;16.70;60.40;;;;;;6187724;23;20130;-85
2023/12/31 07:28:49;;;;;;;0.88;0.80;;;16.80;60.30;;;;;;6214018;23;20196;-83
2023/12/31 07:31:18;;;;;;;0.75;0.73;;;16.80;60.40;;;;;;6186951;23;20229;-83
2023/12/31 07:33:45;;;;;;;1.00;0.90;;;16.70;60.40;;;;;;6214199;23;20262;-83
2023/12/31 07:36:11;;;;;;;1.08;0.60;;;16.70;60.50;;;;;;6138080;23;20586;-83
2023/12/31 07:38:38;;;;;;;1.00;0.90;;;16.70;60.40;;;;;;6108696;23;20273;-85
2023/12/31 07:41:04;;;;;;;0.93;0.80;;;16.70;60.50;;;;;;6108310;23;20237;-84
2023/12/31 07:43:31;;;;;;;0.80;0.80;;;16.60;60.30;;;;;;6185308;23;20473;-85
2023/12/31 07:45:57;;;;;;;0.75;0.75;;;16.70;60.40;;;;;;6182747;23;20132;-83
2023/12/31 07:48:22;;;;;;;1.98;0.90;;;16.70;60.50;;;;;;6182332;23;20162;-83
2023/12/31 07:50:49;;;;;;;1.23;1.00;;;16.70;60.40;;;;;;6159342;23;20573;-83
2023/12/31 07:53:15;;;;;;;1.15;1.00;;;16.70;60.50;;;;;;6157316;23;20151;-84
2023/12/31 07:55:41;;;;;;;1.13;0.98;;;16.70;60.40;;;;;;6157929;23;20155;-84
2023/12/31 07:58:08;;;;;;;1.02;0.88;;;16.60;60.40;;;;;;6184615;23;20138;-84
2023/12/31 08:00:34;;;;;;;0.95;0.85;;;16.70;60.40;;;;;;6183276;23;20209;-84
2023/12/31 08:03:00;;;;;;;0.88;0.80;;;16.70;60.20;;;;;;6182353;23;20205;-82
2023/12/31 08:05:27;;;;;;;0.98;0.80;;;16.70;60.20;;;;;;6157020;23;20459;-83
2023/12/31 08:07:53;;;;;;;0.80;0.80;;;16.70;60.10;;;;;;6182180;23;20138;-84
2023/12/31 08:10:20;;;;;;;1.05;0.90;;;16.80;60.00;;;;;;6159421;23;20154;-83
2023/12/31 08:12:46;;;;;;;1.25;1.00;;;16.80;59.80;;;;;;6184453;23;20138;-83
2023/12/31 08:15:12;;;;;;;0.80;0.73;;;16.80;59.70;;;;;;6185639;23;20462;-83
2023/12/31 08:17:38;;;;;;;1.10;0.80;;;16.80;59.50;;;;;;6159811;23;20139;-84
2023/12/31 08:20:05;;;;;;;0.80;0.70;;;16.90;59.30;;;;;;6160508;23;20581;-83
2023/12/31 08:22:31;;;;;;;1.10;0.70;;;16.90;59.30;;;;;;6187170;23;20138;-84
2023/12/31 08:25:01;;;;;;;0.93;0.82;;;16.90;59.20;;;;;;6185177;23;20131;-85
2023/12/31 08:27:29;;;;;;;1.52;0.73;;;16.90;59.20;;;;;;6135496;23;20507;-85
2023/12/31 08:29:55;;;;;;;1.13;0.90;;;16.90;59.20;;;;;;6160578;23;20157;-84
2023/12/31 08:32:26;;;;;;;1.00;0.90;;;16.90;59.20;;;;;;6186267;23;20143;-82
2023/12/31 08:34:54;;;;;;;0.90;0.82;;;16.90;59.20;;;;;;6184161;23;20139;-84
2023/12/31 08:39:52;;;;;;;0.80;0.70;;;16.90;59.30;;;;;;6159219;23;20253;-84
2023/12/31 08:42:20;;;;;;;0.80;0.80;;;16.90;59.10;;;;;;6111592;23;20146;-83
2023/12/31 08:44:48;;;;;;;0.70;0.70;;;16.90;59.20;;;;;;6111021;23;20158;-83
2023/12/31 08:47:16;;;;;;;0.73;0.63;;;17.00;59.40;;;;;;6141083;23;20207;-85
2023/12/31 08:49:42;;;;;;;0.90;0.80;;;16.90;59.10;;;;;;6154023;23;20166;-83
2023/12/31 08:52:10;;;;;;;0.90;0.90;;;16.90;58.90;;;;;;6153922;23;20156;-82
2023/12/31 08:54:35;;;;;;;0.88;0.77;;;17.00;58.90;;;;;;6178147;23;20155;-84
2023/12/31 08:57:01;;;;;;;2.28;0.75;;;16.90;58.80;;;;;;6178212;23;20180;-84
2023/12/31 08:59:27;;;;;;;0.80;0.80;;;16.90;58.90;;;;;;6188369;23;20205;-82
2023/12/31 09:01:53;;;;;;;0.77;0.75;;;16.90;58.70;;;;;;6165181;23;20478;-84
2023/12/31 09:04:19;;;;;;;0.70;0.70;;;16.90;59.00;;;;;;6189043;23;20150;-84
2023/12/31 09:09:12;;;;;;;0.80;0.80;;;16.90;58.90;;;;;;6214982;23;20209;-83
2023/12/31 09:11:37;;;;;;;0.90;0.80;;;16.80;59.00;;;;;;6163949;23;20157;-83
2023/12/31 09:14:04;;;;;;;0.93;0.80;;;16.90;58.80;;;;;;6165331;23;20146;-84
2023/12/31 09:16:31;;;;;;;1.00;0.90;;;16.90;59.10;;;;;;6149552;23;20210;-84
2023/12/31 09:18:58;;;;;;;1.00;0.70;;;16.90;58.90;;;;;;6129071;23;20666;-82
2023/12/31 09:21:26;;;;;;;1.00;0.80;;;16.90;58.80;;;;;;6130216;23;20283;-82
2023/12/31 09:23:52;;;;;;;1.40;0.73;;;16.90;58.70;;;;;;6182375;23;20585;-84
2023/12/31 09:26:18;;;;;;;0.77;0.77;;;16.80;58.90;;;;;;6190129;23;20138;-84
2023/12/31 09:28:45;;;;;;;0.60;0.60;;;16.90;58.90;;;;;;6190228;23;20173;-83
2023/12/31 09:31:11;;;;;;;0.85;0.85;;;16.90;59.10;;;;;;6188694;23;20162;-82
2023/12/31 09:33:37;;;;;;;0.98;0.88;;;16.90;58.70;;;;;;6139297;23;20142;-83
2023/12/31 09:36:15;;;;;;;0.65;0.65;;;16.90;59.10;;;;;;6188581;23;20153;-84
2023/12/31 09:38:41;;;;;;;0.80;0.70;;;16.90;59.00;;;;;;6137909;23;20228;-83
2023/12/31 09:41:15;;;;;;;1.02;0.80;;;16.90;58.90;;;;;;6188950;23;20146;-83
2023/12/31 09:43:48;;;;;;;1.27;0.90;;;16.90;58.70;;;;;;6115842;23;20156;-84
2023/12/31 09:46:20;;;;;;;0.77;0.77;;;16.90;58.70;;;;;;6090807;23;20185;-85
2023/12/31 09:48:53;;;;;;;0.85;0.70;;;16.90;58.70;;;;;;6091195;23;20180;-82
2023/12/31 09:51:25;;;;;;;0.70;0.70;;;16.90;58.70;;;;;;6115340;23;20150;-84
2023/12/31 09:56:17;;;;;;;1.23;0.77;;;16.90;58.70;;;;;;6214194;23;20279;-82
2023/12/31 09:58:43;;;;;;;0.85;0.80;;;16.90;58.90;;;;;;6188492;23;20141;-84
2023/12/31 10:01:09;;;;;;;0.82;0.77;;;16.90;58.70;;;;;;6187970;23;20149;-83
2023/12/31 10:03:37;;;;;;;0.80;0.65;;;16.90;58.70;;;;;;6215026;23;20518;-83
2023/12/31 10:06:03;;;;;;;0.82;0.80;;;16.90;58.60;;;;;;6158804;23;20229;-85
2023/12/31 10:08:29;;;;;;;1.35;0.90;;;16.90;58.20;;;;;;6134631;23;20142;-83
2023/12/31 10:10:55;;;;;;;0.70;0.70;;;16.90;58.50;;;;;;6158890;23;20143;-82
2023/12/31 10:13:21;;;;;;;0.88;0.70;;;16.90;58.50;;;;;;6182796;23;20177;-83
2023/12/31 10:15:48;;;;;;;0.85;0.70;;;16.90;58.20;;;;;;6184902;23;20201;-83
2023/12/31 10:18:14;;;;;;;1.17;0.90;;;16.90;58.50;;;;;;6108248;23;20161;-84
2023/12/31 10:20:40;;;;;;;1.05;0.80;;;16.90;58.40;;;;;;6184353;23;20198;-83
2023/12/31 10:23:06;;;;;;;0.95;0.70;;;16.90;58.10;;;;;;6163983;23;20202;-83
2023/12/31 10:25:31;;;;;;;0.70;0.70;;;17.00;58.30;;;;;;6163850;23;20769;-83
2023/12/31 10:27:57;;;;;;;0.70;0.70;;;16.90;58.30;;;;;;6164059;23;20224;-84
2023/12/31 10:30:23;;;;;;;0.95;0.73;;;16.90;58.30;;;;;;6187852;23;20510;-83
2023/12/31 10:32:49;;;;;;;0.93;0.80;;;16.90;58.40;;;;;;6214923;23;20142;-85
2023/12/31 10:35:20;;;;;;;1.17;0.50;;;16.90;58.40;;;;;;6163303;23;20150;-83
2023/12/31 10:37:46;;;;;;;1.00;0.68;;;16.90;58.30;;;;;;6162380;23;20138;-86
2023/12/31 10:40:22;;;;;;;1.10;0.80;;;16.90;58.40;;;;;;6138892;23;20240;-83
2023/12/31 10:42:52;;;;;;;1.08;0.80;;;16.90;58.90;;;;;;6135985;23;20240;-84
2023/12/31 10:47:46;;;;;;;0.90;0.70;;;16.80;58.30;;;;;;6185377;23;20293;-84
2023/12/31 10:50:14;;;;;;;0.95;0.77;;;16.90;58.30;;;;;;6164979;23;20137;-84
2023/12/31 10:52:40;;;;;;;0.77;0.73;;;16.90;58.30;;;;;;6163073;23;20142;-83
2023/12/31 10:55:12;;;;;;;0.80;0.80;;;16.80;58.60;;;;;;6163514;23;20145;-84
2023/12/31 10:57:41;;;;;;;1.00;0.68;;;16.90;58.60;;;;;;6165810;23;20146;-83
2023/12/31 11:00:10;;;;;;;0.90;0.80;;;16.80;58.60;;;;;;6188677;23;20201;-83
2023/12/31 11:02:36;;;;;;;0.90;0.82;;;16.80;58.70;;;;;;6139736;23;20142;-83
2023/12/31 11:05:04;;;;;;;0.50;0.50;;;16.90;58.30;;;;;;6163400;23;20228;-83
2023/12/31 11:07:55;;;;;;;1.33;0.90;;;16.80;58.50;;;;;;6164438;23;20146;-86
2023/12/31 11:10:22;;;;;;;1.25;0.98;;;16.80;58.30;;;;;;6165120;23;20158;-84
2023/12/31 11:12:48;;;;;;;0.98;0.82;;;16.90;58.70;;;;;;6137978;23;20176;-84
2023/12/31 11:15:17;;;;;;;0.70;0.60;;;16.80;58.30;;;;;;6214073;22;20574;-86
2023/12/31 11:18:12;;;;;;;1.05;0.93;;;16.90;58.30;;;;;;6134538;23;20147;-84
2023/12/31 11:21:07;;;;;;;1.38;0.98;;;16.90;58.40;;;;;;6115444;23;20178;-83
2023/12/31 11:23:52;;;;;;;0.80;0.80;;;16.80;58.30;;;;;;6072828;23;20182;-84
2023/12/31 11:26:20;;;;;;;1.00;0.70;;;16.90;58.40;;;;;;6132411;23;20493;-83
2023/12/31 11:28:48;;;;;;;1.00;0.80;;;16.80;58.30;;;;;;6133306;23;20131;-85
2023/12/31 11:31:13;;;;;;;0.70;0.60;;;16.90;58.00;;;;;;6092390;23;20157;-84
2023/12/31 11:33:39;;;;;;;0.82;0.73;;;16.90;58.30;;;;;;6092143;23;20644;-83
2023/12/31 11:36:07;;;;;;;0.70;0.70;;;16.80;58.40;;;;;;6092998;23;20180;-83
2023/12/31 11:38:57;;;;;;;1.10;0.90;;;16.80;58.10;;;;;;6068813;23;20133;-83
2023/12/31 11:41:23;;;;;;;0.73;0.70;;;16.90;57.80;;;;;;6069616;23;20604;-84
2023/12/31 11:46:35;;;;;;;1.00;0.90;;;16.90;57.90;;;;;;6215054;22;20205;-85
2023/12/31 11:49:05;;;;;;;0.95;0.77;;;16.90;58.10;;;;;;6165031;23;20600;-85
2023/12/31 11:51:55;;;;;;;0.80;0.70;;;16.90;58.00;;;;;;6139799;23;20168;-85
2023/12/31 11:54:24;;;;;;;0.80;0.77;;;16.90;57.70;;;;;;6190503;23;20512;-83
2023/12/31 11:56:51;;;;;;;0.70;0.70;;;16.90;58.00;;;;;;6184999;23;20281;-84
2023/12/31 11:59:17;;;;;;;1.00;0.90;;;16.90;57.40;;;;;;6160530;23;20191;-83
2023/12/31 12:01:43;;;;;;;0.68;0.68;;;17.00;57.30;;;;;;6135220;23;20278;-83
2023/12/31 12:04:11;;;;;;;0.70;0.70;;;16.90;57.50;;;;;;6160616;23;20167;-86
2023/12/31 12:09:11;;;;;;;0.80;0.80;;;16.90;57.60;;;;;;6187230;23;20633;-83
2023/12/31 12:11:43;;;;;;;0.73;0.68;;;16.90;57.50;;;;;;6160429;23;20143;-83
2023/12/31 12:14:09;;;;;;;1.02;0.80;;;16.90;57.70;;;;;;6186144;23;20159;-84
2023/12/31 12:16:35;;;;;;;0.95;0.80;;;16.90;57.80;;;;;;6159657;23;20234;-84
2023/12/31 12:19:04;;;;;;;0.60;0.60;;;16.90;57.90;;;;;;6182404;23;20562;-85
2023/12/31 12:21:30;;;;;;;0.63;0.63;;;16.90;58.00;;;;;;6160671;23;20177;-83
2023/12/31 12:23:58;;;;;;;1.40;0.80;;;16.90;57.40;;;;;;6159604;23;20570;-83
2023/12/31 12:26:25;;;;;;;0.70;0.70;;;17.00;57.70;;;;;;6184387;23;20178;-84
2023/12/31 12:28:55;;;;;;;0.75;0.70;;;16.90;57.30;;;;;;6134525;23;20151;-84
2023/12/31 12:33:54;;;;;;;1.15;0.80;;;16.90;57.50;;;;;;6214430;22;20210;-83
2023/12/31 12:36:21;;;;;;;0.80;0.80;;;16.90;57.70;;;;;;6214975;23;20192;-83
2023/12/31 12:38:48;;;;;;;0.73;0.73;;;17.00;57.90;;;;;;6189715;23;20146;-84
2023/12/31 12:41:23;;;;;;;0.73;0.70;;;16.90;57.70;;;;;;6141102;23;20296;-82
2023/12/31 12:43:51;;;;;;;0.90;0.90;;;16.90;57.30;;;;;;6138186;23;20153;-84
2023/12/31 12:46:17;;;;;;;0.80;0.70;;;16.90;57.50;;;;;;6155256;23;20207;-83
2023/12/31 12:48:50;;;;;;;0.70;0.70;;;16.90;57.30;;;;;;6130118;23;20168;-84
2023/12/31 12:51:16;;;;;;;0.77;0.70;;;16.90;57.10;;;;;;6155665;23;20211;-86
2023/12/31 12:53:42;;;;;;;0.85;0.80;;;16.90;57.30;;;;;;6130105;23;20186;-85
2023/12/31 12:56:08;;;;;;;0.70;0.70;;;17.00;57.60;;;;;;6105314;23;20170;-84
2023/12/31 12:58:34;;;;;;;0.80;0.70;;;16.90;57.30;;;;;;6153149;23;20147;-84
2023/12/31 13:01:00;;;;;;;0.70;0.70;;;17.00;57.40;;;;;;6154804;23;20163;-82
2023/12/31 13:03:29;;;;;;;0.70;0.70;;;16.90;58.50;;;;;;6153672;23;20136;-84
2023/12/31 13:05:55;;;;;;;0.80;0.80;;;16.90;57.30;;;;;;6128245;23;20159;-84
2023/12/31 13:08:20;;;;;;;0.70;0.70;;;16.90;57.10;;;;;;6154229;23;20128;-83
2023/12/31 13:10:46;;;;;;;0.73;0.73;;;16.90;57.60;;;;;;6152644;23;20583;-83
2023/12/31 13:13:12;;;;;;;0.60;0.60;;;16.90;57.10;;;;;;6153805;23;20147;-82
2023/12/31 13:15:38;;;;;;;1.33;1.00;;;16.90;57.10;;;;;;6127143;23;20140;-84